Time;durP1;ratioP1;P1;durP2;ratioP2;P2;SDS_P1;SDS_P2;PMS_P1;PMS_P2;Temp;Humidity;BMP_temperature;BMP_pressure;BME280_temperature;BME280_humidity;BME280_pressure;Samples;Min_cycle;Max_cycle;Signal;HPM_P1;HPM_P2
2021/09/25 00:02:32;;;;;;;8.40;5.30;;;13.30;88.40;;;;;;5006621;28;20026;-86
2021/09/25 00:05:07;;;;;;;8.30;6.00;;;13.30;88.60;;;;;;5006025;28;20034;-87
2021/09/25 00:07:33;;;;;;;7.22;5.97;;;13.20;88.60;;;;;;5019198;28;20030;-86
2021/09/25 00:09:59;;;;;;;7.25;5.35;;;13.20;88.60;;;;;;4996774;28;20072;-86
2021/09/25 00:12:24;;;;;;;7.72;5.60;;;13.20;88.70;;;;;;4994296;28;20081;-86
2021/09/25 00:14:51;;;;;;;22.45;10.82;;;13.30;88.60;;;;;;5001888;28;20037;-87
2021/09/25 00:17:17;;;;;;;56.75;25.50;;;13.20;88.60;;;;;;5016219;28;20025;-86
2021/09/25 00:19:42;;;;;;;46.25;20.67;;;13.20;88.70;;;;;;5000389;28;20087;-87
2021/09/25 00:22:08;;;;;;;13.05;7.93;;;13.20;88.60;;;;;;5006595;28;20034;-87
2021/09/25 00:24:34;;;;;;;15.95;8.55;;;13.20;88.50;;;;;;5006751;28;20022;-86
2021/09/25 00:27:00;;;;;;;28.75;15.15;;;13.10;88.50;;;;;;5002165;28;20022;-87
2021/09/25 00:29:26;;;;;;;20.25;11.23;;;13.10;88.60;;;;;;4989239;28;20068;-86
2021/09/25 00:31:51;;;;;;;13.05;9.10;;;13.10;88.70;;;;;;5008787;28;20030;-86
2021/09/25 00:34:17;;;;;;;12.82;8.18;;;13.10;88.60;;;;;;4989712;28;20037;-86
2021/09/25 00:36:45;;;;;;;9.93;6.47;;;13.10;88.70;;;;;;5016403;28;20045;-86
2021/09/25 00:39:10;;;;;;;10.07;6.72;;;13.10;88.70;;;;;;5002675;28;20080;-85
2021/09/25 00:41:36;;;;;;;9.57;6.43;;;13.10;88.70;;;;;;4995629;28;20069;-86
2021/09/25 00:44:02;;;;;;;9.90;6.07;;;13.00;88.70;;;;;;5004144;28;20498;-87
2021/09/25 00:46:28;;;;;;;8.77;6.40;;;13.00;88.70;;;;;;4998283;28;20495;-86
2021/09/25 00:48:53;;;;;;;7.63;5.82;;;13.00;88.80;;;;;;4995779;28;20032;-86
2021/09/25 00:51:19;;;;;;;10.18;5.68;;;13.00;88.90;;;;;;4995485;28;20061;-86
2021/09/25 00:53:45;;;;;;;7.07;5.70;;;12.90;88.90;;;;;;5020814;28;20034;-88
2021/09/25 00:56:11;;;;;;;8.18;5.63;;;12.90;88.90;;;;;;5005615;28;20038;-86
2021/09/25 00:58:38;;;;;;;6.47;5.68;;;12.90;88.90;;;;;;5002654;28;20061;-86
2021/09/25 01:01:04;;;;;;;9.63;5.40;;;12.80;88.90;;;;;;5008414;28;20030;-86
2021/09/25 01:03:30;;;;;;;7.03;5.15;;;12.80;88.80;;;;;;4998713;28;20041;-86
2021/09/25 01:05:56;;;;;;;7.72;5.47;;;12.80;88.90;;;;;;4994929;28;20053;-86
2021/09/25 01:08:24;;;;;;;8.57;5.63;;;12.80;89.00;;;;;;4999651;28;20026;-84
2021/09/25 01:10:52;;;;;;;6.75;5.18;;;12.80;89.00;;;;;;5020238;28;20026;-87
2021/09/25 01:13:19;;;;;;;8.15;5.72;;;12.80;89.00;;;;;;4995422;28;20102;-86
2021/09/25 01:15:45;;;;;;;7.07;5.38;;;12.80;88.90;;;;;;4995936;28;20026;-86
2021/09/25 01:18:11;;;;;;;7.05;5.30;;;12.70;88.90;;;;;;4994403;28;20030;-88
2021/09/25 01:20:37;;;;;;;9.63;5.53;;;12.70;88.90;;;;;;4995038;28;20040;-87
2021/09/25 01:23:03;;;;;;;7.68;5.85;;;12.70;89.00;;;;;;5001801;28;20022;-87
2021/09/25 01:25:29;;;;;;;6.55;5.72;;;12.60;89.00;;;;;;5011398;28;20060;-85
2021/09/25 01:27:56;;;;;;;7.18;5.38;;;12.60;89.00;;;;;;5022950;28;20032;-87
2021/09/25 01:30:22;;;;;;;7.07;5.60;;;12.50;89.00;;;;;;4994662;28;20113;-87
2021/09/25 01:32:49;;;;;;;6.35;4.88;;;12.50;89.60;;;;;;5011008;28;20033;-87
2021/09/25 01:35:16;;;;;;;6.38;5.38;;;12.50;89.10;;;;;;4993170;28;20482;-88
2021/09/25 01:37:47;;;;;;;6.43;5.40;;;12.40;89.10;;;;;;4992704;28;20129;-87
2021/09/25 01:40:15;;;;;;;7.20;5.65;;;12.40;89.00;;;;;;4994422;28;20025;-88
2021/09/25 01:42:44;;;;;;;6.75;5.20;;;12.30;89.10;;;;;;4990245;28;20075;-88
2021/09/25 01:45:16;;;;;;;7.32;6.32;;;12.40;89.20;;;;;;4999144;28;20120;-88
2021/09/25 01:47:53;;;;;;;7.78;5.63;;;12.30;89.30;;;;;;5008154;28;20087;-88
2021/09/25 01:50:24;;;;;;;8.20;5.53;;;12.30;89.30;;;;;;5001204;28;20168;-88
2021/09/25 01:52:56;;;;;;;10.27;6.25;;;12.20;89.30;;;;;;4997897;28;20030;-88
2021/09/25 01:55:25;;;;;;;11.73;6.57;;;12.20;89.40;;;;;;4999260;28;20057;-88
2021/09/25 01:57:54;;;;;;;8.38;6.15;;;12.20;89.50;;;;;;5005109;28;20026;-88
2021/09/25 02:00:24;;;;;;;8.73;6.18;;;12.20;89.60;;;;;;4997678;28;20021;-88
2021/09/25 02:03:03;;;;;;;7.32;6.28;;;12.10;89.40;;;;;;4994258;28;20132;-88
2021/09/25 02:05:29;;;;;;;9.15;6.10;;;12.20;89.60;;;;;;4996314;28;20033;-87
2021/09/25 02:07:54;;;;;;;8.35;5.97;;;12.20;89.50;;;;;;5015797;28;20030;-87
2021/09/25 02:10:20;;;;;;;10.50;6.78;;;12.10;89.30;;;;;;4995493;28;20080;-87
2021/09/25 02:12:49;;;;;;;10.02;6.50;;;12.10;89.40;;;;;;5004584;28;20427;-87
2021/09/25 02:15:15;;;;;;;10.02;6.57;;;12.00;89.40;;;;;;4985818;28;20210;-87
2021/09/25 02:17:46;;;;;;;10.23;6.35;;;12.00;89.40;;;;;;5005057;28;20091;-88
2021/09/25 02:20:12;;;;;;;9.68;6.30;;;12.00;89.60;;;;;;5021462;28;20049;-87
2021/09/25 02:22:48;;;;;;;8.55;6.70;;;11.90;89.60;;;;;;5001481;28;20085;-87
2021/09/25 02:25:27;;;;;;;11.32;7.35;;;12.00;89.60;;;;;;5001473;28;20112;-87
2021/09/25 02:31:23;;;;;;;;;;;;;;;;;;;;;
2021/09/25 02:34:26;;;;;;;11.23;8.10;;;11.80;89.50;;;;;;5011717;28;20036;-87
2021/09/25 02:36:51;;;;;;;;;;;11.80;89.80;;;;;;4994855;28;20037;-86
2021/09/25 02:39:17;;;;;;;12.32;9.15;;;11.80;89.30;;;;;;4993295;28;19909;-87
2021/09/25 02:41:45;;;;;;;12.05;9.02;;;11.70;89.40;;;;;;5002602;28;20069;-87
2021/09/25 02:44:10;;;;;;;11.57;8.52;;;11.70;89.70;;;;;;5000789;28;20022;-88
2021/09/25 02:46:36;;;;;;;11.43;8.18;;;11.60;89.70;;;;;;5010554;28;20037;-86
2021/09/25 02:49:02;;;;;;;10.68;8.43;;;11.70;89.80;;;;;;4994175;28;20030;-87
2021/09/25 02:51:27;;;;;;;12.23;8.45;;;11.60;89.80;;;;;;4991575;28;20033;-87
2021/09/25 02:53:53;;;;;;;13.02;8.90;;;11.60;89.90;;;;;;4987190;28;20117;-86
2021/09/25 02:56:18;;;;;;;12.90;9.40;;;11.50;89.90;;;;;;4992546;28;20084;-87
2021/09/25 02:58:44;;;;;;;11.25;8.88;;;11.60;90.00;;;;;;4985608;28;20412;-86
2021/09/25 03:01:10;;;;;;;13.52;9.02;;;11.50;90.00;;;;;;5002418;28;20026;-88
2021/09/25 03:03:35;;;;;;;14.48;9.70;;;11.60;90.10;;;;;;4995297;28;20022;-86
2021/09/25 03:06:01;;;;;;;12.50;8.98;;;11.60;90.10;;;;;;5027578;28;20028;-85
2021/09/25 03:08:27;;;;;;;11.90;8.90;;;11.60;90.10;;;;;;5001942;28;20034;-85
2021/09/25 03:10:52;;;;;;;15.60;9.68;;;11.60;90.10;;;;;;5003441;28;20026;-85
2021/09/25 03:13:18;;;;;;;13.32;10.27;;;11.60;90.00;;;;;;4990455;28;20162;-87
2021/09/25 03:15:44;;;;;;;15.93;10.23;;;11.60;90.10;;;;;;5019202;28;20440;-86
2021/09/25 03:18:09;;;;;;;13.60;9.90;;;11.60;90.00;;;;;;4994584;28;20030;-87
2021/09/25 03:20:35;;;;;;;14.57;9.32;;;11.60;90.10;;;;;;4991749;28;20037;-85
2021/09/25 03:23:01;;;;;;;12.15;9.77;;;11.60;90.10;;;;;;4996612;28;20029;-86
2021/09/25 03:25:26;;;;;;;12.27;9.75;;;11.60;90.20;;;;;;5014196;28;20083;-87
2021/09/25 03:27:54;;;;;;;12.57;9.02;;;11.60;90.40;;;;;;5011452;28;20104;-86
2021/09/25 03:30:20;;;;;;;12.45;9.05;;;11.50;90.10;;;;;;5005607;28;20017;-86
2021/09/25 03:32:47;;;;;;;14.50;9.45;;;11.50;90.10;;;;;;5013223;28;20017;-87
2021/09/25 03:35:13;;;;;;;16.30;9.60;;;11.50;90.10;;;;;;4998120;28;20053;-87
2021/09/25 03:37:38;;;;;;;13.38;9.95;;;11.50;90.10;;;;;;4988412;28;20455;-87
2021/09/25 03:40:08;;;;;;;13.32;9.02;;;11.50;90.10;;;;;;5012219;28;20069;-87
2021/09/25 03:43:08;;;;;;;14.15;10.20;;;11.40;90.10;;;;;;4987361;28;20061;-88
2021/09/25 03:46:07;;;;;;;13.68;9.88;;;11.30;90.20;;;;;;4993647;28;20038;-89
2021/09/25 03:49:06;;;;;;;12.30;8.88;;;11.30;90.20;;;;;;4988380;28;20123;-89
2021/09/25 03:51:52;;;;;;;13.85;9.35;;;11.30;90.20;;;;;;4995371;28;20034;-88
2021/09/25 03:54:43;;;;;;;13.35;9.68;;;11.30;90.20;;;;;;4983778;28;20108;-87
2021/09/25 03:57:30;;;;;;;12.38;8.55;;;11.30;90.20;;;;;;4994412;28;20117;-88
2021/09/25 04:00:02;;;;;;;10.93;7.22;;;11.20;90.20;;;;;;5000111;28;20025;-87
2021/09/25 04:02:28;;;;;;;10.20;7.40;;;11.10;90.20;;;;;;5014382;28;20030;-86
2021/09/25 04:04:53;;;;;;;9.23;6.95;;;11.10;90.20;;;;;;4997952;28;20502;-87
2021/09/25 04:07:19;;;;;;;8.88;6.65;;;11.10;90.20;;;;;;4995685;28;20033;-86
2021/09/25 04:09:45;;;;;;;8.50;5.95;;;11.00;90.20;;;;;;5007956;28;20042;-86
2021/09/25 04:12:10;;;;;;;7.60;5.25;;;11.10;90.20;;;;;;4995955;28;20037;-85
2021/09/25 04:14:36;;;;;;;7.47;5.82;;;11.00;90.20;;;;;;5017566;28;20033;-88
2021/09/25 04:17:02;;;;;;;7.70;5.82;;;11.00;90.30;;;;;;4995706;28;20022;-88
2021/09/25 04:19:28;;;;;;;5.85;5.22;;;10.90;90.20;;;;;;5016582;28;20029;-88
2021/09/25 04:22:12;;;;;;;7.93;5.80;;;10.80;90.30;;;;;;4992404;28;20858;-91
2021/09/25 04:24:39;;;;;;;6.68;5.40;;;10.80;90.40;;;;;;5009595;28;20057;-89
2021/09/25 04:27:08;;;;;;;8.13;5.93;;;10.80;90.30;;;;;;4998540;28;20490;-88
2021/09/25 04:29:41;;;;;;;7.38;5.78;;;10.80;90.30;;;;;;4997790;28;20026;-87
2021/09/25 04:32:07;;;;;;;7.78;5.60;;;10.80;90.40;;;;;;4997173;28;20034;-87
2021/09/25 04:34:36;;;;;;;8.40;6.30;;;10.70;90.30;;;;;;4992361;28;20508;-89
2021/09/25 04:37:05;;;;;;;6.95;5.60;;;10.70;90.40;;;;;;5001338;28;20027;-88
2021/09/25 04:39:34;;;;;;;6.70;5.35;;;10.70;90.40;;;;;;4997073;28;20070;-89
2021/09/25 04:41:59;;;;;;;8.10;5.53;;;10.70;90.40;;;;;;5077171;22;20074;-89
2021/09/25 04:44:25;;;;;;;8.05;5.80;;;10.60;90.40;;;;;;5011110;28;20042;-89
2021/09/25 04:46:51;;;;;;;7.50;5.47;;;10.70;90.40;;;;;;5012792;28;20109;-89
2021/09/25 04:49:16;;;;;;;7.72;6.07;;;10.70;90.40;;;;;;4980840;28;20072;-89
2021/09/25 04:51:42;;;;;;;7.53;5.70;;;10.60;90.40;;;;;;4991496;28;20026;-90
2021/09/25 04:54:08;;;;;;;8.05;5.85;;;10.60;90.40;;;;;;4985283;28;20104;-89
2021/09/25 04:56:34;;;;;;;7.40;5.57;;;10.60;90.40;;;;;;4995035;28;20152;-89
2021/09/25 04:59:00;;;;;;;8.90;5.95;;;10.60;90.40;;;;;;4995507;28;20022;-89
2021/09/25 05:01:26;;;;;;;10.98;5.90;;;10.60;90.40;;;;;;4995239;28;20033;-89
2021/09/25 05:04:04;;;;;;;7.20;5.78;;;10.50;90.40;;;;;;4995183;28;20026;-90
2021/09/25 05:06:30;;;;;;;8.05;5.80;;;10.60;90.50;;;;;;4993327;28;20034;-90
2021/09/25 05:08:57;;;;;;;9.20;6.13;;;10.50;90.40;;;;;;4993924;28;20026;-89
2021/09/25 05:11:28;;;;;;;7.78;5.85;;;10.50;90.40;;;;;;4995142;28;20033;-87
2021/09/25 05:13:53;;;;;;;10.77;5.90;;;10.50;90.50;;;;;;4987548;28;20026;-89
2021/09/25 05:16:28;;;;;;;7.90;5.78;;;10.50;90.50;;;;;;4983540;28;20372;-89
2021/09/25 05:18:53;;;;;;;8.05;6.05;;;10.50;90.50;;;;;;4989568;28;20083;-89
2021/09/25 05:21:21;;;;;;;8.60;5.75;;;10.40;90.40;;;;;;4995917;28;20117;-90
2021/09/25 05:23:47;;;;;;;7.95;6.07;;;10.40;90.50;;;;;;5011317;28;20032;-90
2021/09/25 05:26:15;;;;;;;8.80;6.25;;;10.40;90.50;;;;;;4985613;28;20022;-91
2021/09/25 05:28:45;;;;;;;8.82;6.57;;;10.40;90.60;;;;;;4995270;28;20026;-90
2021/09/25 05:31:20;;;;;;;7.25;5.70;;;10.40;90.60;;;;;;4994561;28;20101;-91
2021/09/25 05:33:46;;;;;;;7.47;5.85;;;10.40;90.60;;;;;;4994560;28;20025;-90
2021/09/25 05:36:12;;;;;;;8.07;6.25;;;10.40;90.50;;;;;;4987187;28;20426;-90
2021/09/25 05:38:38;;;;;;;12.07;6.05;;;10.40;90.50;;;;;;4994113;28;20034;-90
2021/09/25 05:41:03;;;;;;;9.35;6.43;;;10.40;90.60;;;;;;4985205;28;20084;-89
2021/09/25 05:43:29;;;;;;;10.63;7.13;;;10.40;90.60;;;;;;4985531;28;20022;-89
2021/09/25 05:45:55;;;;;;;9.13;6.40;;;10.40;90.60;;;;;;4986962;28;20036;-89
2021/09/25 05:48:21;;;;;;;10.07;6.93;;;10.40;90.60;;;;;;4994076;28;20096;-89
2021/09/25 05:50:47;;;;;;;9.15;5.85;;;10.40;90.50;;;;;;4993691;28;20481;-90
2021/09/25 05:53:37;;;;;;;;;;;;;;;;;;;;;
2021/09/25 05:56:03;;;;;;;9.57;6.30;;;10.30;90.60;;;;;;5004597;28;20060;-90
2021/09/25 05:58:39;;;;;;;9.88;7.20;;;10.30;90.60;;;;;;4976477;28;20030;-90
2021/09/25 06:01:05;;;;;;;9.45;6.35;;;10.30;90.70;;;;;;4988566;28;20061;-89
2021/09/25 06:03:31;;;;;;;8.98;6.07;;;10.20;90.60;;;;;;4984385;28;20646;-88
2021/09/25 06:05:56;;;;;;;10.27;7.30;;;10.20;90.80;;;;;;4988048;28;20024;-89
2021/09/25 06:08:22;;;;;;;11.13;7.45;;;10.30;90.80;;;;;;4977839;28;20129;-89
2021/09/25 06:10:47;;;;;;;10.63;7.55;;;10.30;90.80;;;;;;4990363;28;20124;-90
2021/09/25 06:13:13;;;;;;;9.52;7.72;;;10.30;90.90;;;;;;4992176;28;20030;-89
2021/09/25 06:15:39;;;;;;;11.95;8.93;;;10.40;90.90;;;;;;4993639;28;20021;-89
2021/09/25 06:18:04;;;;;;;13.18;8.75;;;10.40;91.20;;;;;;4991180;28;20037;-88
2021/09/25 06:20:30;;;;;;;11.35;7.82;;;10.40;91.00;;;;;;4992472;28;20125;-89
2021/09/25 06:22:57;;;;;;;11.68;7.85;;;10.50;91.10;;;;;;4987224;28;20026;-89
2021/09/25 06:25:23;;;;;;;10.55;7.97;;;10.50;91.10;;;;;;4992906;28;20049;-90
2021/09/25 06:27:48;;;;;;;12.77;8.25;;;10.60;91.20;;;;;;4991560;28;20029;-88
2021/09/25 06:30:16;;;;;;;11.35;8.13;;;10.60;91.20;;;;;;5003873;28;20031;-92
2021/09/25 06:32:46;;;;;;;12.88;7.78;;;10.70;91.30;;;;;;4990930;28;20045;-91
2021/09/25 06:35:12;;;;;;;14.75;8.90;;;10.80;91.30;;;;;;4990025;28;20104;-89
2021/09/25 06:37:41;;;;;;;11.13;8.30;;;10.80;91.20;;;;;;4986045;28;20387;-91
2021/09/25 06:40:13;;;;;;;11.80;8.18;;;10.90;91.30;;;;;;4982717;28;20030;-91
2021/09/25 06:42:40;;;;;;;15.40;9.38;;;10.90;91.40;;;;;;4981426;28;20409;-90
2021/09/25 06:45:07;;;;;;;11.15;8.32;;;11.00;91.30;;;;;;4982291;28;20109;-90
2021/09/25 06:47:33;;;;;;;13.15;8.48;;;11.10;91.40;;;;;;4989092;28;20407;-89
2021/09/25 06:49:59;;;;;;;11.85;8.50;;;11.10;91.30;;;;;;4990030;28;20014;-89
2021/09/25 06:52:25;;;;;;;10.65;7.55;;;11.20;91.40;;;;;;5002079;28;20033;-90
2021/09/25 06:54:51;;;;;;;12.52;9.27;;;11.20;91.40;;;;;;4988996;28;20125;-90
2021/09/25 06:57:30;;;;;;;11.70;8.75;;;11.40;91.50;;;;;;4990431;28;21521;-89
2021/09/25 07:00:00;;;;;;;16.00;9.25;;;11.40;91.60;;;;;;4985541;28;20439;-88
2021/09/25 07:02:29;;;;;;;13.45;8.32;;;11.50;91.60;;;;;;4979631;28;20072;-89
2021/09/25 07:05:26;;;;;;;15.05;8.73;;;11.70;91.60;;;;;;4982261;28;20505;-90
2021/09/25 07:10:58;;;;;;;10.80;7.90;;;12.10;91.70;;;;;;4999780;28;20041;-90
2021/09/25 07:13:24;;;;;;;9.43;7.35;;;12.30;91.70;;;;;;4987068;28;20034;-91
2021/09/25 07:16:09;;;;;;;11.23;8.07;;;12.50;91.60;;;;;;5001283;28;20097;-90
2021/09/25 07:18:45;;;;;;;12.05;7.90;;;12.80;91.60;;;;;;5007497;28;20135;-90
2021/09/25 07:21:40;;;;;;;9.43;7.03;;;13.50;91.10;;;;;;5011427;28;20101;-90
2021/09/25 07:24:18;;;;;;;11.32;7.68;;;14.40;90.30;;;;;;4996607;28;20030;-90
2021/09/25 07:27:00;;;;;;;10.35;6.60;;;15.10;89.00;;;;;;4994565;28;20036;-90
2021/09/25 07:29:29;;;;;;;9.05;6.78;;;15.20;88.70;;;;;;4994175;28;20076;-90
2021/09/25 07:31:55;;;;;;;9.45;6.47;;;15.40;88.50;;;;;;4991670;28;20026;-90
2021/09/25 07:34:35;;;;;;;10.77;6.47;;;15.90;87.90;;;;;;4989269;28;20041;-90
2021/09/25 07:37:01;;;;;;;6.68;5.68;;;16.30;87.20;;;;;;4992211;28;20034;-91
2021/09/25 07:39:27;;;;;;;9.95;5.88;;;16.70;86.40;;;;;;4984687;28;20030;-89
2021/09/25 07:41:52;;;;;;;7.07;5.60;;;17.00;85.90;;;;;;4990251;28;20081;-88
2021/09/25 07:44:18;;;;;;;7.25;5.45;;;17.40;85.50;;;;;;4990419;28;20028;-90
2021/09/25 07:46:43;;;;;;;9.77;5.93;;;17.70;85.00;;;;;;4978313;28;20022;-88
2021/09/25 07:49:09;;;;;;;8.90;7.43;;;18.30;84.00;;;;;;4993359;28;20033;-87
2021/09/25 07:51:34;;;;;;;11.75;5.82;;;18.70;82.60;;;;;;4991642;28;20133;-89
2021/09/25 07:54:00;;;;;;;7.45;5.90;;;18.90;81.10;;;;;;4986258;28;20033;-86
2021/09/25 07:56:26;;;;;;;7.43;5.60;;;18.80;80.80;;;;;;5011190;28;20030;-88
2021/09/25 07:58:51;;;;;;;9.65;5.75;;;18.60;81.60;;;;;;4994254;28;20101;-89
2021/09/25 08:01:17;;;;;;;6.68;5.28;;;18.40;82.50;;;;;;4996356;28;20076;-89
2021/09/25 08:03:43;;;;;;;6.88;5.50;;;18.30;83.00;;;;;;4995903;28;20029;-90
2021/09/25 08:06:10;;;;;;;6.78;5.35;;;18.40;83.50;;;;;;4995674;28;20112;-90
2021/09/25 08:08:36;;;;;;;7.35;5.20;;;18.40;83.30;;;;;;4995623;28;20049;-88
2021/09/25 08:11:01;;;;;;;6.05;4.95;;;18.40;83.70;;;;;;4996034;28;20486;-89
2021/09/25 08:13:27;;;;;;;6.90;5.68;;;18.50;84.10;;;;;;4999067;28;20411;-88
2021/09/25 08:15:53;;;;;;;7.38;5.45;;;18.60;83.90;;;;;;4988591;28;20236;-89
2021/09/25 08:18:19;;;;;;;7.10;5.35;;;18.60;84.00;;;;;;4995206;28;20140;-89
2021/09/25 08:20:45;;;;;;;7.43;5.50;;;18.50;83.90;;;;;;4994911;28;20081;-89
2021/09/25 08:23:10;;;;;;;8.25;6.00;;;18.40;84.20;;;;;;4995435;28;20490;-90
2021/09/25 08:25:36;;;;;;;8.50;5.40;;;18.50;85.10;;;;;;4995595;28;20065;-89
2021/09/25 08:28:02;;;;;;;6.82;5.70;;;18.70;85.50;;;;;;4994716;28;20394;-89
2021/09/25 08:30:27;;;;;;;5.20;4.70;;;19.00;85.50;;;;;;4975625;28;20033;-89
2021/09/25 08:32:53;;;;;;;6.18;4.85;;;19.20;84.50;;;;;;4975860;28;20274;-89
2021/09/25 08:35:21;;;;;;;5.72;5.13;;;19.30;84.40;;;;;;4975849;28;20065;-89
2021/09/25 08:37:47;;;;;;;7.28;5.18;;;19.40;83.50;;;;;;4975784;28;20577;-89
2021/09/25 08:40:14;;;;;;;7.18;4.70;;;19.50;83.30;;;;;;4976205;28;20049;-89
2021/09/25 08:42:41;;;;;;;6.50;4.80;;;19.50;82.70;;;;;;4981676;28;20033;-89
2021/09/25 08:45:07;;;;;;;6.90;4.80;;;19.60;82.90;;;;;;4987846;28;20455;-89
2021/09/25 08:47:33;;;;;;;4.93;4.32;;;19.70;83.00;;;;;;4993847;28;20022;-89
2021/09/25 08:49:59;;;;;;;5.85;4.65;;;19.80;82.40;;;;;;4995403;28;20113;-89
2021/09/25 08:52:28;;;;;;;5.25;3.75;;;19.90;81.70;;;;;;4993159;28;20117;-89
2021/09/25 08:54:53;;;;;;;4.75;3.78;;;20.00;81.30;;;;;;4990527;28;20517;-89
2021/09/25 08:57:19;;;;;;;4.60;4.15;;;20.10;81.40;;;;;;4993404;28;20038;-89
2021/09/25 08:59:45;;;;;;;6.85;4.18;;;20.20;80.70;;;;;;4983155;28;20085;-88
2021/09/25 09:02:19;;;;;;;4.10;3.65;;;20.30;80.70;;;;;;4985513;28;20434;-89
2021/09/25 09:04:53;;;;;;;7.82;4.20;;;20.50;80.10;;;;;;4996824;28;20029;-89
2021/09/25 09:07:22;;;;;;;3.88;3.30;;;20.60;80.30;;;;;;4994822;28;20102;-89
2021/09/25 09:09:49;;;;;;;4.60;3.17;;;20.60;78.60;;;;;;5013295;28;20018;-89
2021/09/25 09:12:27;;;;;;;3.50;3.20;;;20.50;78.00;;;;;;5009500;28;20386;-89
2021/09/25 09:14:54;;;;;;;6.40;3.08;;;20.40;77.40;;;;;;4983311;28;20022;-89
2021/09/25 09:17:29;;;;;;;12.55;3.70;;;20.40;77.50;;;;;;5010101;28;20031;-89
2021/09/25 09:19:56;;;;;;;4.10;2.80;;;20.30;76.70;;;;;;5035224;28;20013;-89
2021/09/25 09:22:24;;;;;;;3.25;2.95;;;20.20;77.20;;;;;;5033412;28;20033;-89
2021/09/25 09:24:53;;;;;;;5.88;3.30;;;20.30;77.20;;;;;;5007400;28;20048;-89
2021/09/25 09:27:28;;;;;;;4.47;3.33;;;20.30;77.50;;;;;;4994776;28;20504;-89
2021/09/25 09:30:15;;;;;;;4.75;3.35;;;20.40;77.40;;;;;;4994660;28;20513;-89
2021/09/25 09:32:45;;;;;;;4.82;4.35;;;20.50;77.60;;;;;;4994388;28;20034;-89
2021/09/25 09:35:18;;;;;;;3.38;3.08;;;20.50;77.50;;;;;;4994322;28;20026;-89
2021/09/25 09:37:53;;;;;;;4.30;3.42;;;20.70;77.50;;;;;;4994889;28;20025;-89
2021/09/25 09:40:19;;;;;;;5.40;3.60;;;20.80;77.30;;;;;;5012426;28;20104;-89
2021/09/25 09:42:46;;;;;;;6.43;3.13;;;20.80;76.20;;;;;;5011857;28;20030;-89
2021/09/25 09:45:23;;;;;;;3.70;2.90;;;20.90;76.20;;;;;;4993009;28;20117;-89
2021/09/25 09:47:49;;;;;;;5.00;2.92;;;21.00;75.80;;;;;;4989711;28;20049;-89
2021/09/25 09:50:15;;;;;;;3.08;2.78;;;21.00;75.40;;;;;;4996285;28;20022;-90
2021/09/25 09:52:41;;;;;;;4.75;2.97;;;21.00;75.40;;;;;;5011500;28;20053;-89
2021/09/25 09:55:07;;;;;;;3.47;3.17;;;21.10;75.30;;;;;;4995598;28;20483;-89
2021/09/25 09:57:34;;;;;;;3.47;3.17;;;21.20;75.00;;;;;;4993184;28;20026;-88
2021/09/25 10:00:00;;;;;;;3.42;2.80;;;21.20;74.80;;;;;;4993942;28;20068;-89
2021/09/25 10:02:26;;;;;;;2.92;2.72;;;21.30;74.70;;;;;;4994668;28;20053;-89
2021/09/25 10:04:52;;;;;;;2.83;2.60;;;21.30;74.30;;;;;;4993627;28;20437;-89
2021/09/25 10:07:18;;;;;;;3.30;3.00;;;21.40;73.90;;;;;;5011744;28;20121;-89
2021/09/25 10:09:44;;;;;;;4.05;2.67;;;21.50;74.00;;;;;;4994309;28;20540;-89
2021/09/25 10:12:13;;;;;;;3.33;3.03;;;21.80;73.80;;;;;;4994064;28;20037;-88
2021/09/25 10:14:45;;;;;;;8.95;2.95;;;21.90;73.00;;;;;;4990064;28;20030;-89
2021/09/25 10:17:13;;;;;;;3.25;2.95;;;21.90;72.60;;;;;;4974379;28;20106;-89
2021/09/25 10:19:42;;;;;;;3.15;2.72;;;22.00;72.70;;;;;;4990635;28;20097;-89
2021/09/25 10:22:13;;;;;;;7.57;2.95;;;22.10;72.70;;;;;;4993752;28;20022;-89
2021/09/25 10:24:46;;;;;;;4.70;3.00;;;22.10;72.90;;;;;;4993595;28;20033;-89
2021/09/25 10:27:12;;;;;;;3.30;3.03;;;22.20;72.30;;;;;;4993436;28;20030;-89
2021/09/25 10:29:50;;;;;;;4.93;3.30;;;22.30;72.50;;;;;;4993764;28;20033;-89
2021/09/25 10:32:20;;;;;;;3.40;3.10;;;22.40;72.00;;;;;;5011283;28;20033;-89
2021/09/25 10:35:15;;;;;;;5.53;3.10;;;22.50;71.70;;;;;;5010849;28;20037;-89
2021/09/25 10:38:02;;;;;;;3.90;3.13;;;22.70;71.60;;;;;;4997308;28;20128;-89
2021/09/25 10:40:35;;;;;;;4.88;3.35;;;22.80;70.60;;;;;;4995181;28;20025;-89
2021/09/25 10:43:20;;;;;;;;;;;22.90;70.50;;;;;;4983443;28;20494;-89
2021/09/25 10:45:50;;;;;;;4.65;3.30;;;22.90;71.60;;;;;;5007474;28;19906;-89
2021/09/25 10:48:19;;;;;;;4.35;3.35;;;23.00;70.80;;;;;;4982837;28;20030;-89
2021/09/25 10:50:56;;;;;;;3.45;3.08;;;23.10;70.30;;;;;;4995999;28;20026;-89
2021/09/25 10:53:23;;;;;;;3.88;3.47;;;23.10;70.00;;;;;;4997610;28;20026;-89
2021/09/25 10:55:52;;;;;;;3.20;2.45;;;23.20;69.70;;;;;;4994466;28;20022;-89
2021/09/25 10:58:24;;;;;;;5.70;3.33;;;23.20;70.00;;;;;;4993987;28;20030;-89
2021/09/25 11:01:01;;;;;;;3.50;3.20;;;23.40;69.40;;;;;;4977872;28;20042;-89
2021/09/25 11:06:08;;;;;;;3.58;2.95;;;23.70;68.90;;;;;;4995390;28;20062;-89
2021/09/25 11:08:36;;;;;;;4.65;3.35;;;23.80;69.10;;;;;;4977925;28;20507;-89
2021/09/25 11:11:04;;;;;;;3.50;3.20;;;24.00;68.70;;;;;;4978018;28;20092;-89
2021/09/25 11:14:01;;;;;;;3.58;2.90;;;24.20;68.10;;;;;;4990942;28;20127;-88
2021/09/25 11:16:43;;;;;;;5.22;3.20;;;24.30;67.30;;;;;;5014522;28;20030;-90
2021/09/25 11:19:10;;;;;;;3.22;2.90;;;24.50;66.40;;;;;;4997253;28;20466;-89
2021/09/25 11:21:36;;;;;;;3.28;2.97;;;24.50;66.70;;;;;;4997441;28;20065;-89
2021/09/25 11:24:01;;;;;;;3.20;2.92;;;24.60;66.60;;;;;;4997141;28;20457;-89
2021/09/25 11:26:41;;;;;;;7.18;3.15;;;24.70;66.50;;;;;;4996789;28;20033;-90
2021/09/25 11:29:08;;;;;;;3.38;3.08;;;24.80;65.40;;;;;;4997072;28;20510;-89
2021/09/25 11:31:34;;;;;;;3.58;3.00;;;24.90;65.50;;;;;;4996663;28;20034;-90
2021/09/25 11:34:00;;;;;;;2.95;2.65;;;25.10;65.30;;;;;;4996971;28;20029;-89
2021/09/25 11:36:30;;;;;;;4.13;3.53;;;25.20;65.00;;;;;;4999103;28;20034;-90
2021/09/25 11:38:56;;;;;;;3.50;3.20;;;25.30;64.50;;;;;;4980988;28;20027;-90
2021/09/25 11:41:22;;;;;;;5.63;3.55;;;25.40;64.10;;;;;;4991002;28;20041;-89
2021/09/25 11:43:57;;;;;;;4.75;3.28;;;25.50;63.70;;;;;;4996526;28;20439;-89
2021/09/25 11:46:26;;;;;;;5.53;3.55;;;25.50;63.10;;;;;;4996856;28;20050;-89
2021/09/25 11:48:58;;;;;;;5.55;3.55;;;25.60;63.00;;;;;;4977607;28;20467;-89
2021/09/25 11:51:24;;;;;;;3.30;2.83;;;25.70;62.70;;;;;;4977986;28;20548;-89
2021/09/25 11:53:59;;;;;;;3.88;2.90;;;25.80;62.90;;;;;;4991164;28;20128;-89
2021/09/25 11:56:29;;;;;;;4.63;3.63;;;25.90;62.30;;;;;;5024074;28;20019;-90
2021/09/25 11:58:59;;;;;;;3.85;3.20;;;26.00;61.60;;;;;;5000593;28;20029;-89
2021/09/25 12:01:26;;;;;;;3.67;2.80;;;26.00;61.10;;;;;;5000567;28;20037;-89
2021/09/25 12:03:51;;;;;;;4.68;2.45;;;26.10;62.00;;;;;;5017072;28;20068;-89
2021/09/25 12:06:17;;;;;;;3.30;2.85;;;26.10;61.80;;;;;;4996225;28;20081;-89
2021/09/25 12:08:49;;;;;;;4.07;2.50;;;26.30;61.10;;;;;;4990236;28;20037;-89
2021/09/25 12:11:15;;;;;;;2.92;2.58;;;26.30;60.40;;;;;;4994779;28;20041;-89
2021/09/25 12:13:46;;;;;;;3.00;2.80;;;26.30;60.80;;;;;;4991951;28;20045;-89
2021/09/25 12:16:18;;;;;;;4.18;2.45;;;26.50;60.50;;;;;;4992144;28;20390;-89
2021/09/25 12:18:47;;;;;;;3.30;2.67;;;26.60;60.10;;;;;;4995959;28;20433;-90
2021/09/25 12:21:26;;;;;;;4.05;2.90;;;26.70;59.50;;;;;;4994956;28;20041;-89
2021/09/25 12:23:56;;;;;;;2.47;2.28;;;26.70;58.80;;;;;;4995068;28;20022;-88
2021/09/25 12:26:24;;;;;;;9.32;2.65;;;26.70;59.40;;;;;;5012070;28;20018;-89
2021/09/25 12:28:55;;;;;;;3.92;2.60;;;26.90;59.90;;;;;;4995521;28;20021;-88
2021/09/25 12:31:24;;;;;;;3.85;3.20;;;27.00;59.20;;;;;;5013206;28;20111;-89
2021/09/25 12:33:55;;;;;;;3.97;2.60;;;27.20;59.20;;;;;;4995042;28;20125;-89
2021/09/25 12:36:23;;;;;;;2.83;2.47;;;27.30;58.50;;;;;;5012334;28;20454;-89
2021/09/25 12:38:49;;;;;;;2.70;2.50;;;27.40;58.50;;;;;;4995358;28;20022;-89
2021/09/25 12:41:21;;;;;;;2.55;2.35;;;27.60;58.20;;;;;;5012556;28;20550;-89
2021/09/25 12:43:50;;;;;;;3.00;2.72;;;27.70;57.50;;;;;;4986727;28;20030;-89
2021/09/25 12:46:21;;;;;;;3.03;2.72;;;27.70;57.70;;;;;;4979077;28;20061;-89
2021/09/25 12:49:04;;;;;;;2.73;2.20;;;27.80;57.00;;;;;;4976084;28;20026;-90
2021/09/25 12:51:35;;;;;;;5.45;1.92;;;28.00;56.80;;;;;;4991057;28;20541;-89
2021/09/25 12:54:08;;;;;;;2.90;2.50;;;28.10;56.80;;;;;;4995020;28;20072;-89
2021/09/25 12:56:39;;;;;;;3.45;2.65;;;28.20;56.60;;;;;;4994325;28;20474;-89
2021/09/25 12:59:07;;;;;;;3.35;2.40;;;28.30;57.00;;;;;;4975433;28;20031;-90
2021/09/25 13:01:33;;;;;;;2.30;2.10;;;28.50;57.30;;;;;;4993041;28;20029;-88
2021/09/25 13:04:14;;;;;;;2.75;2.35;;;28.70;56.90;;;;;;4976374;28;20092;-89
2021/09/25 13:06:41;;;;;;;3.10;2.55;;;28.90;56.20;;;;;;5003110;28;20490;-89